Time;durP1;ratioP1;P1;durP2;ratioP2;P2;SDS_P1;SDS_P2;PMS_P1;PMS_P2;Temp;Humidity;BMP_temperature;BMP_pressure;BME280_temperature;BME280_humidity;BME280_pressure;Samples;Min_cycle;Max_cycle;Signal;HPM_P1;HPM_P2
2021/04/24 00:01:14;;;;;;;8.30;4.67;;;;;;;7.28;64.32;101038.98;640395;221;24797;-77
2021/04/24 00:03:43;;;;;;;6.67;4.90;;;;;;;7.21;63.82;101041.64;651083;217;24783;-77
2021/04/24 00:06:11;;;;;;;6.80;4.30;;;;;;;7.17;63.71;101037.58;659904;217;24761;-76
2021/04/24 00:08:39;;;;;;;11.13;5.43;;;;;;;6.99;65.54;101044.81;652889;218;24732;-76
2021/04/24 00:11:06;;;;;;;17.17;4.73;;;;;;;6.86;65.86;101042.20;652630;218;24757;-77
2021/04/24 00:13:34;;;;;;;14.47;5.23;;;;;;;6.72;66.40;101045.70;640078;221;25934;-77
2021/04/24 00:16:04;;;;;;;9.10;4.40;;;;;;;6.77;65.33;101045.42;640111;221;24848;-77
2021/04/24 00:18:32;;;;;;;12.65;5.55;;;;;;;6.90;65.48;101042.39;634868;222;32658;-76
2021/04/24 00:21:00;;;;;;;8.40;4.60;;;;;;;6.72;66.53;101046.98;645307;218;23682;-76
2021/04/24 00:23:28;;;;;;;13.43;4.40;;;;;;;6.77;65.44;101041.07;644120;222;24754;-76
2021/04/24 00:25:55;;;;;;;10.33;4.77;;;;;;;6.91;64.85;101043.22;648979;219;24761;-76
2021/04/24 00:28:23;;;;;;;9.50;4.27;;;;;;;7.27;63.78;101037.33;646171;221;24814;-76
2021/04/24 00:30:52;;;;;;;8.20;4.37;;;;;;;7.25;64.40;101034.03;637526;219;24825;-77
2021/04/24 00:33:20;;;;;;;5.83;3.90;;;;;;;7.29;64.21;101034.17;649068;219;24764;-76
2021/04/24 00:35:48;;;;;;;7.23;4.20;;;;;;;7.35;63.67;101030.72;642914;222;25083;-76
2021/04/24 00:38:16;;;;;;;10.27;4.50;;;;;;;7.43;63.08;101013.36;635894;222;32770;-76
2021/04/24 00:40:44;;;;;;;12.53;4.60;;;;;;;7.22;64.01;101018.72;636511;222;24827;-77
2021/04/24 00:43:13;;;;;;;7.23;4.53;;;;;;;7.17;64.37;101015.59;651306;217;24870;-77
2021/04/24 00:45:41;;;;;;;7.97;4.13;;;;;;;7.21;64.13;101009.30;644074;221;25069;-77
2021/04/24 00:48:08;;;;;;;10.60;4.13;;;;;;;6.82;66.43;101017.03;646284;220;24813;-77
2021/04/24 00:50:36;;;;;;;6.03;4.10;;;;;;;6.53;67.23;101018.93;636399;221;24815;-76
2021/04/24 00:53:04;;;;;;;7.03;4.60;;;;;;;6.41;68.01;101024.06;655730;217;24732;-77
2021/04/24 00:55:32;;;;;;;10.53;5.03;;;;;;;6.42;67.87;101021.84;642972;221;24796;-77
2021/04/24 00:58:00;;;;;;;7.33;4.17;;;;;;;6.47;67.21;101023.19;639054;221;24831;-77
2021/04/24 01:00:28;;;;;;;9.00;4.60;;;;;;;6.20;68.33;101026.27;651081;220;24832;-76
2021/04/24 01:02:57;;;;;;;6.67;4.50;;;;;;;6.18;68.21;101026.34;635446;225;24959;-76
2021/04/24 01:05:24;;;;;;;6.93;4.33;;;;;;;6.20;68.40;101029.67;638998;221;24795;-77
2021/04/24 01:07:51;;;;;;;11.00;4.43;;;;;;;6.12;68.21;101025.91;642155;221;24871;-77
2021/04/24 01:10:20;;;;;;;10.33;5.23;;;;;;;5.81;68.33;101022.63;631365;225;24879;-77
2021/04/24 01:12:48;;;;;;;6.83;4.30;;;;;;;5.74;69.37;101020.04;640949;220;28018;-76
2021/04/24 01:15:16;;;;;;;8.00;3.90;;;;;;;6.02;68.43;101027.40;647199;221;24760;-76
2021/04/24 01:17:43;;;;;;;6.07;4.10;;;;;;;5.98;68.72;101030.64;639222;221;24860;-76
2021/04/24 01:20:13;;;;;;;6.80;4.20;;;;;;;5.93;69.07;101025.77;653207;218;24850;-76
2021/04/24 01:22:41;;;;;;;8.37;4.00;;;;;;;5.89;70.04;101025.55;645202;222;24799;-77
2021/04/24 01:25:11;;;;;;;8.97;4.13;;;;;;;5.87;69.10;101026.57;661296;217;24754;-76
2021/04/24 01:27:40;;;;;;;7.43;4.17;;;;;;;6.01;68.87;101028.33;645678;221;24796;-76
2021/04/24 01:30:09;;;;;;;8.87;4.13;;;;;;;6.12;68.89;101025.91;629131;226;24846;-76
2021/04/24 01:32:37;;;;;;;7.57;4.17;;;;;;;6.23;68.88;101025.60;640616;221;24826;-77
2021/04/24 01:35:07;;;;;;;6.40;4.07;;;;;;;6.15;69.09;101017.95;640647;222;24799;-77
2021/04/24 01:37:34;;;;;;;9.30;4.00;;;;;;;6.16;68.91;101015.74;640749;222;31089;-76
2021/04/24 01:40:03;;;;;;;10.80;4.10;;;;;;;6.24;68.81;101009.64;638963;222;24850;-76
2021/04/24 01:42:33;;;;;;;7.63;4.40;;;;;;;6.32;69.49;101013.84;641451;222;24788;-77
2021/04/24 01:45:01;;;;;;;8.73;5.50;;;;;;;6.22;69.28;101011.50;645240;218;27930;-77
2021/04/24 01:47:29;;;;;;;9.00;4.67;;;;;;;6.22;69.86;101011.50;647940;218;24803;-78
2021/04/24 01:49:57;;;;;;;7.87;4.70;;;;;;;6.26;69.87;101015.53;639152;222;24810;-76
2021/04/24 01:52:25;;;;;;;6.90;4.70;;;;;;;6.15;71.11;101018.79;650928;217;24777;-76
2021/04/24 01:54:55;;;;;;;9.20;4.57;;;;;;;6.09;71.45;101022.23;640345;221;24820;-76
2021/04/24 01:57:25;;;;;;;7.27;4.97;;;;;;;6.23;71.08;101014.44;648920;218;32485;-76
2021/04/24 01:59:53;;;;;;;12.65;4.97;;;;;;;6.30;71.35;101015.69;631430;221;32654;-76
2021/04/24 02:02:21;;;;;;;9.15;4.70;;;;;;;6.40;71.16;101023.23;643242;217;32529;-77
2021/04/24 02:04:49;;;;;;;12.20;4.47;;;;;;;6.30;71.33;101016.98;639295;222;24739;-77
2021/04/24 02:07:17;;;;;;;9.23;4.97;;;;;;;6.37;70.78;101018.27;649060;217;24740;-76
2021/04/24 02:09:44;;;;;;;11.90;5.17;;;;;;;6.38;70.81;101012.17;659001;217;24736;-77
2021/04/24 02:12:13;;;;;;;7.33;3.63;;;;;;;6.46;70.97;101011.66;635392;221;24800;-76
2021/04/24 02:14:42;;;;;;;10.13;4.83;;;;;;;6.42;70.54;101005.88;643309;221;24781;-77
2021/04/24 02:17:11;;;;;;;8.13;4.10;;;;;;;6.33;70.85;101007.74;650825;217;24829;-76
2021/04/24 02:19:40;;;;;;;8.83;4.30;;;;;;;6.30;71.03;101002.78;642997;221;24828;-76
2021/04/24 02:22:08;;;;;;;11.50;4.67;;;;;;;6.13;71.67;101009.02;644573;221;24794;-77
2021/04/24 02:24:39;;;;;;;7.40;3.70;;;;;;;6.30;71.35;101007.95;656377;217;24845;-77
2021/04/24 02:27:09;;;;;;;10.40;4.10;;;;;;;6.24;71.50;100994.97;639990;222;24806;-76
2021/04/24 02:29:36;;;;;;;8.50;4.60;;;;;;;6.20;72.07;100999.15;628766;226;24838;-77
2021/04/24 02:32:05;;;;;;;11.33;4.10;;;;;;;6.28;72.29;101003.34;643430;222;26361;-78
2021/04/24 02:34:33;;;;;;;6.73;4.50;;;;;;;6.21;72.46;100995.17;647124;222;24826;-77
2021/04/24 02:37:01;;;;;;;10.33;4.50;;;;;;;6.02;72.70;101002.41;650989;217;27913;-77
2021/04/24 02:39:31;;;;;;;6.63;4.40;;;;;;;6.09;73.76;101008.03;642035;222;24805;-76
2021/04/24 02:42:00;;;;;;;7.30;4.53;;;;;;;5.98;73.69;101000.95;644999;221;27003;-76
2021/04/24 02:44:27;;;;;;;13.33;4.47;;;;;;;6.06;73.17;101005.65;638868;222;24798;-77
2021/04/24 02:46:56;;;;;;;7.17;4.40;;;;;;;6.09;73.66;101004.98;652547;219;24772;-77
2021/04/24 02:49:23;;;;;;;8.73;5.07;;;;;;;6.14;74.05;100997.77;642024;222;24806;-76
2021/04/24 02:51:51;;;;;;;7.90;4.73;;;;;;;6.21;74.10;100997.76;654748;217;24743;-75
2021/04/24 02:54:19;;;;;;;13.23;5.00;;;;;;;6.27;73.63;100999.11;643205;221;24837;-76
2021/04/24 02:56:48;;;;;;;11.15;5.58;;;;;;;6.32;74.05;100992.34;641720;222;32527;-76
2021/04/24 02:59:15;;;;;;;10.27;5.03;;;;;;;6.06;74.24;100997.91;649379;221;28961;-76
2021/04/24 03:01:43;;;;;;;8.50;5.23;;;;;;;6.05;74.43;101006.55;653210;217;24765;-77
2021/04/24 03:04:12;;;;;;;10.53;4.90;;;;;;;6.09;75.58;101001.58;656001;217;24763;-77
2021/04/24 03:06:40;;;;;;;7.60;4.83;;;;;;;6.19;74.21;100995.73;656016;216;24762;-77
2021/04/24 03:09:08;;;;;;;9.57;5.30;;;;;;;6.40;73.62;100990.94;645438;217;32574;-76
2021/04/24 03:11:36;;;;;;;9.53;4.87;;;;;;;6.24;74.62;100996.72;653652;217;25808;-76
2021/04/24 03:14:05;;;;;;;10.07;4.50;;;;;;;6.25;74.04;101000.96;654284;217;24780;-76
2021/04/24 03:16:32;;;;;;;8.67;4.30;;;;;;;6.19;74.54;101000.91;657356;217;24745;-75
2021/04/24 03:19:00;;;;;;;8.20;4.97;;;;;;;6.34;74.21;100999.09;652244;217;32529;-76
2021/04/24 03:21:29;;;;;;;10.47;5.73;;;;;;;6.24;75.44;101001.89;633080;221;32698;-76
2021/04/24 03:24:04;;;;;;;9.18;5.40;;;;;;;6.35;74.42;100997.34;653812;217;32599;-75
2021/04/24 03:26:31;;;;;;;7.90;4.80;;;;;;;6.21;74.98;101000.34;642214;221;23744;-76
2021/04/24 03:28:59;;;;;;;11.73;4.90;;;;;;;6.12;76.36;100997.50;640709;221;24857;-76
2021/04/24 03:31:31;;;;;;;8.03;4.90;;;;;;;6.05;76.43;101008.66;629905;225;24926;-76
2021/04/24 03:33:59;;;;;;;8.60;5.60;;;;;;;6.10;76.35;101010.98;631034;222;32763;-76
2021/04/24 03:36:27;;;;;;;12.03;5.77;;;;;;;5.93;76.82;101015.91;643314;221;23703;-76
2021/04/24 03:38:55;;;;;;;11.87;5.90;;;;;;;6.15;76.46;101011.04;655383;217;32841;-76
2021/04/24 03:41:23;;;;;;;10.43;5.00;;;;;;;5.99;76.99;101014.69;645756;221;24801;-75
2021/04/24 03:43:50;;;;;;;8.90;5.50;;;;;;;6.10;76.50;101014.85;638588;222;24820;-77
2021/04/24 03:46:18;;;;;;;8.80;5.50;;;;;;;6.04;77.14;101017.80;630795;225;24866;-76
2021/04/24 03:48:46;;;;;;;10.10;5.57;;;;;;;6.05;77.11;101016.41;642428;222;24794;-77
2021/04/24 03:51:14;;;;;;;8.50;5.20;;;;;;;6.10;76.55;101023.89;640073;222;24810;-76
2021/04/24 03:53:43;;;;;;;9.97;6.00;;;;;;;6.14;76.54;101024.05;635310;222;32661;-75
2021/04/24 03:56:11;;;;;;;10.30;6.40;;;;;;;6.17;76.25;101021.27;646252;217;32583;-76
2021/04/24 03:58:39;;;;;;;10.28;5.90;;;;;;;6.28;76.35;101016.26;653102;217;32537;-76
2021/04/24 04:01:06;;;;;;;11.47;5.83;;;;;;;6.05;76.79;101016.87;642834;221;23691;-76
2021/04/24 04:03:34;;;;;;;9.73;6.00;;;;;;;6.20;76.68;101012.89;637798;221;32717;-76
2021/04/24 04:06:02;;;;;;;12.10;5.70;;;;;;;6.13;76.65;101027.56;644532;221;24830;-76
2021/04/24 04:08:34;;;;;;;9.50;6.05;;;;;;;6.20;77.21;101032.26;634145;222;32670;-76
2021/04/24 04:11:03;;;;;;;10.53;5.50;;;;;;;6.19;76.86;101028.45;636305;222;23965;-75
2021/04/24 04:13:31;;;;;;;12.13;6.53;;;;;;;6.08;77.43;101033.48;650807;217;24746;-75
2021/04/24 04:15:58;;;;;;;8.70;5.27;;;;;;;6.14;77.33;101038.26;653608;217;24801;-75
2021/04/24 04:18:26;;;;;;;9.93;5.63;;;;;;;6.05;77.94;101042.23;653102;216;24776;-75
2021/04/24 04:20:54;;;;;;;11.03;5.90;;;;;;;5.92;77.64;101042.19;656309;217;24809;-76
2021/04/24 04:23:22;;;;;;;13.55;6.87;;;;;;;6.10;77.92;101044.55;656494;217;32533;-76
2021/04/24 04:25:51;;;;;;;9.47;6.60;;;;;;;6.05;77.70;101042.69;653425;217;23675;-76
2021/04/24 04:28:18;;;;;;;10.43;6.30;;;;;;;5.94;77.81;101050.66;649168;217;25086;-76
2021/04/24 04:30:46;;;;;;;14.07;7.20;;;;;;;5.90;78.85;101042.72;654903;217;24786;-76
2021/04/24 04:33:14;;;;;;;10.20;6.80;;;;;;;5.93;78.15;101042.55;656854;217;24779;-76
2021/04/24 04:35:42;;;;;;;11.23;6.57;;;;;;;5.93;78.01;101040.44;656155;217;24844;-76
2021/04/24 04:38:10;;;;;;;12.07;6.57;;;;;;;6.04;78.46;101047.03;645660;217;32549;-76
2021/04/24 04:40:38;;;;;;;13.43;6.60;;;;;;;5.98;78.70;101043.55;652631;217;24767;-76
2021/04/24 04:43:05;;;;;;;13.40;7.10;;;;;;;6.04;78.88;101046.20;658061;217;24756;-75
2021/04/24 04:45:33;;;;;;;12.73;6.30;;;;;;;6.14;78.37;101053.28;660372;217;24761;-76
2021/04/24 04:48:01;;;;;;;10.77;6.60;;;;;;;6.23;77.91;101044.97;649423;217;24764;-76
2021/04/24 04:50:30;;;;;;;11.13;7.33;;;;;;;6.24;77.26;101046.63;652107;217;24745;-76
2021/04/24 04:52:58;;;;;;;12.20;6.90;;;;;;;6.30;77.77;101044.11;654289;217;24839;-77
2021/04/24 04:55:26;;;;;;;12.27;7.67;;;;;;;6.47;76.86;101039.98;648547;217;24759;-76
2021/04/24 04:57:54;;;;;;;15.20;6.57;;;;;;;6.49;76.40;101038.16;651265;217;24993;-76
2021/04/24 05:00:23;;;;;;;13.20;7.70;;;;;;;6.66;76.37;101036.23;651591;217;32843;-76
2021/04/24 05:02:51;;;;;;;11.80;7.00;;;;;;;6.78;76.23;101044.48;635687;222;32748;-76
2021/04/24 05:05:19;;;;;;;12.03;7.03;;;;;;;6.89;75.44;101045.05;639332;222;25880;-76
2021/04/24 05:07:48;;;;;;;10.23;6.93;;;;;;;6.82;75.13;101032.54;650490;218;24816;-76
2021/04/24 05:10:15;;;;;;;15.30;7.00;;;;;;;6.83;75.91;101035.95;644320;222;24765;-77
2021/04/24 05:12:42;;;;;;;11.30;7.20;;;;;;;6.94;76.47;101033.50;653114;219;24776;-75
2021/04/24 05:15:12;;;;;;;14.83;8.00;;;;;;;7.09;75.13;101033.77;637832;222;32756;-76
2021/04/24 05:17:40;;;;;;;12.23;6.90;;;;;;;7.14;74.76;101039.45;652027;218;24775;-78
2021/04/24 05:20:08;;;;;;;13.53;8.20;;;;;;;7.39;74.79;101040.39;637618;222;32729;-76
2021/04/24 05:22:37;;;;;;;13.73;8.40;;;;;;;7.53;74.72;101036.39;643320;222;24827;-76
2021/04/24 05:25:06;;;;;;;14.57;7.50;;;;;;;7.71;73.28;101027.34;645589;219;24768;-76
2021/04/24 05:27:35;;;;;;;12.57;6.90;;;;;;;7.77;73.24;101031.77;644884;222;24780;-76
2021/04/24 05:30:02;;;;;;;13.60;6.47;;;;;;;7.91;73.90;101035.51;652514;219;24776;-76
2021/04/24 05:32:30;;;;;;;11.23;6.67;;;;;;;7.87;73.54;101025.81;647145;221;24814;-76
2021/04/24 05:34:57;;;;;;;13.00;7.07;;;;;;;7.81;73.44;101026.72;652541;218;24788;-76
2021/04/24 05:37:25;;;;;;;10.77;7.23;;;;;;;7.99;73.34;101028.01;654856;218;24783;-76
2021/04/24 05:39:56;;;;;;;16.70;8.07;;;;;;;7.92;74.24;101031.98;649999;218;27972;-76
2021/04/24 05:42:21;;;;;;;12.10;6.93;;;;;;;7.94;73.90;101026.22;641483;221;24804;-76
2021/04/24 05:44:49;;;;;;;15.77;8.03;;;;;;;8.00;73.03;101037.43;653703;217;24839;-76
2021/04/24 05:47:17;;;;;;;13.70;7.70;;;;;;;8.11;72.92;101034.91;644008;221;25119;-76
2021/04/24 05:49:45;;;;;;;13.38;7.90;;;;;;;8.43;72.03;101038.28;634211;221;32986;-76
2021/04/24 05:52:13;;;;;;;16.55;8.75;;;;;;;8.63;72.36;101029.44;638191;221;32817;-76
2021/04/24 05:54:43;;;;;;;15.53;7.80;;;;;;;8.61;71.96;101023.54;647890;221;23678;-76
2021/04/24 05:57:09;;;;;;;15.27;8.83;;;;;;;8.63;71.58;101028.61;645533;220;28004;-76
2021/04/24 05:59:36;;;;;;;12.80;7.30;;;;;;;8.72;71.13;101030.98;647122;221;24815;-76
2021/04/24 06:02:04;;;;;;;11.47;7.63;;;;;;;8.90;72.28;101035.65;650712;218;24885;-77
2021/04/24 06:04:32;;;;;;;17.40;8.57;;;;;;;9.00;71.33;101032.35;642188;221;24834;-77
2021/04/24 06:07:01;;;;;;;13.00;7.13;;;;;;;9.02;71.51;101028.73;637491;222;26097;-78
2021/04/24 06:09:28;;;;;;;13.70;8.10;;;;;;;9.06;70.00;101017.64;650572;218;24859;-76
2021/04/24 06:11:56;;;;;;;12.40;6.40;;;;;;;9.09;70.23;101018.70;649790;218;24762;-76
2021/04/24 06:14:24;;;;;;;13.40;7.17;;;;;;;9.15;69.18;101028.63;646448;222;24776;-76
2021/04/24 06:16:52;;;;;;;16.27;7.87;;;;;;;9.28;70.09;101028.03;653106;219;24834;-76
2021/04/24 06:19:20;;;;;;;14.47;6.93;;;;;;;9.26;69.06;101022.13;650210;217;25310;-76
2021/04/24 06:21:48;;;;;;;15.77;6.90;;;;;;;9.31;68.92;101028.30;645400;221;24837;-76
2021/04/24 06:24:15;;;;;;;11.97;7.23;;;;;;;9.50;70.00;101028.53;643972;221;24784;-75
2021/04/24 06:26:43;;;;;;;12.90;6.87;;;;;;;9.58;67.89;101030.55;641634;222;24872;-76
2021/04/24 06:29:11;;;;;;;11.73;6.80;;;;;;;9.81;68.49;101025.20;644378;221;31305;-76
2021/04/24 06:31:39;;;;;;;15.73;8.03;;;;;;;9.78;67.94;101026.74;647841;222;24946;-76
2021/04/24 06:34:07;;;;;;;12.90;6.87;;;;;;;9.94;66.26;101028.13;647354;222;24802;-76
2021/04/24 06:36:35;;;;;;;16.83;7.40;;;;;;;9.76;67.20;101024.73;653091;218;24817;-76
2021/04/24 06:39:05;;;;;;;16.73;7.90;;;;;;;9.92;67.28;101023.53;649049;219;24810;-76
2021/04/24 06:41:32;;;;;;;11.27;6.70;;;;;;;10.18;66.72;101021.47;650546;218;24777;-76
2021/04/24 06:44:00;;;;;;;11.97;7.50;;;;;;;10.22;66.89;101023.73;658689;217;24796;-77
2021/04/24 06:46:27;;;;;;;12.20;7.03;;;;;;;10.42;66.68;101026.05;654457;218;24775;-77
2021/04/24 06:48:55;;;;;;;13.10;7.00;;;;;;;10.42;65.08;101016.94;648465;221;27936;-75
2021/04/24 06:51:23;;;;;;;12.23;7.07;;;;;;;10.61;65.34;101013.19;637405;221;24813;-76
2021/04/24 06:53:52;;;;;;;17.20;7.00;;;;;;;10.83;65.18;101020.51;642684;221;24888;-76
2021/04/24 06:56:20;;;;;;;14.40;7.47;;;;;;;10.95;64.74;101009.09;643938;221;24817;-76
2021/04/24 06:58:48;;;;;;;10.67;6.67;;;;;;;10.85;63.92;101001.72;654098;217;24758;-76
2021/04/24 07:01:16;;;;;;;12.57;7.50;;;;;;;10.76;64.72;101000.69;642651;221;24788;-76
2021/04/24 07:03:44;;;;;;;13.67;7.13;;;;;;;10.83;64.58;101008.80;644600;221;24781;-76
2021/04/24 07:06:12;;;;;;;14.83;8.07;;;;;;;11.06;65.28;101003.81;654151;218;24774;-76
2021/04/24 07:08:40;;;;;;;13.00;7.60;;;;;;;11.32;66.27;101007.31;645913;221;25880;-78
2021/04/24 07:11:07;;;;;;;14.40;7.60;;;;;;;11.53;62.71;100994.56;651100;218;24757;-76
2021/04/24 07:13:37;;;;;;;14.60;7.60;;;;;;;11.26;64.47;100996.91;645507;221;24990;-76
2021/04/24 07:16:10;;;;;;;21.43;7.40;;;;;;;11.56;63.22;100985.68;653600;218;24761;-76
2021/04/24 07:18:34;;;;;;;12.40;7.70;;;;;;;11.58;62.79;100981.98;649595;217;24809;-77
2021/04/24 07:21:02;;;;;;;11.30;6.30;;;;;;;11.54;61.96;100978.00;647795;222;24767;-76
2021/04/24 07:23:30;;;;;;;16.30;7.47;;;;;;;11.56;62.69;100972.66;641219;222;24836;-76
2021/04/24 07:25:58;;;;;;;14.70;6.63;;;;;;;11.51;62.43;100974.81;643793;221;24828;-76
2021/04/24 07:28:26;;;;;;;16.97;7.63;;;;;;;11.85;63.95;100980.09;638901;221;25234;-76
2021/04/24 07:30:54;;;;;;;12.40;8.50;;;;;;;11.80;62.93;100976.22;635593;221;34699;-76
2021/04/24 07:33:23;;;;;;;12.33;7.67;;;;;;;12.07;62.51;100971.19;635307;222;32747;-76
2021/04/24 07:35:50;;;;;;;10.90;7.23;;;;;;;12.34;62.05;100983.55;627205;225;23709;-76
2021/04/24 07:38:18;;;;;;;17.60;7.73;;;;;;;12.60;61.86;100979.08;640621;221;24919;-76
2021/04/24 07:40:46;;;;;;;13.45;7.50;;;;;;;12.58;61.24;100971.88;642070;222;32793;-76
2021/04/24 07:43:14;;;;;;;13.17;7.67;;;;;;;12.31;60.95;100966.88;648830;221;23675;-76
2021/04/24 07:45:43;;;;;;;11.20;6.30;;;;;;;12.30;60.38;100961.80;638374;222;24833;-76
2021/04/24 07:48:12;;;;;;;14.70;7.23;;;;;;;12.51;61.15;100957.24;651047;218;23774;-77
2021/04/24 07:50:40;;;;;;;12.33;6.53;;;;;;;12.72;60.97;100958.39;651545;218;24829;-79
2021/04/24 07:53:09;;;;;;;13.10;7.20;;;;;;;12.63;61.62;100960.53;637106;221;24822;-76
2021/04/24 07:55:37;;;;;;;12.50;7.67;;;;;;;13.20;60.66;100960.06;636263;221;33716;-78
2021/04/24 07:58:05;;;;;;;10.50;7.43;;;;;;;13.12;59.09;100954.23;646147;220;24827;-76
2021/04/24 08:00:35;;;;;;;10.13;6.97;;;;;;;13.26;58.85;100949.05;642973;221;23830;-80
2021/04/24 08:03:01;;;;;;;9.90;6.40;;;;;;;12.94;57.73;100944.17;648638;218;24751;-73
2021/04/24 08:05:29;;;;;;;16.80;8.13;;;;;;;13.04;59.10;100939.26;647462;218;24813;-73
2021/04/24 08:07:57;;;;;;;15.10;7.77;;;;;;;13.31;60.81;100949.43;647362;219;24763;-73
2021/04/24 08:10:25;;;;;;;11.83;7.70;;;;;;;13.41;59.20;100950.22;654663;218;26039;-73
2021/04/24 08:12:53;;;;;;;13.40;7.70;;;;;;;13.61;59.33;100947.82;633945;221;32770;-74
2021/04/24 08:15:21;;;;;;;13.78;7.20;;;;;;;13.37;55.79;100937.08;633008;221;33115;-76
2021/04/24 08:17:49;;;;;;;11.67;6.60;;;;;;;13.39;56.94;100938.27;644605;219;23738;-74
2021/04/24 08:20:17;;;;;;;11.57;7.62;;;;;;;13.93;59.65;100945.20;642828;219;32567;-74
2021/04/24 08:22:45;;;;;;;14.77;7.30;;;;;;;13.82;56.42;100939.73;647769;221;23684;-75
2021/04/24 08:25:14;;;;;;;12.73;6.10;;;;;;;13.91;56.27;100942.73;646982;220;24724;-74
2021/04/24 08:27:42;;;;;;;13.60;5.67;;;;;;;13.61;53.78;100925.61;644031;221;23821;-74
2021/04/24 08:30:11;;;;;;;8.80;5.70;;;;;;;13.90;56.57;100924.59;653926;219;24771;-74
2021/04/24 08:32:39;;;;;;;10.73;6.60;;;;;;;14.13;56.94;100932.33;650728;218;24831;-75
2021/04/24 08:35:07;;;;;;;8.13;5.13;;;;;;;14.40;56.86;100926.66;637999;222;29011;-75
2021/04/24 08:37:35;;;;;;;9.87;6.13;;;;;;;14.56;55.65;100921.56;638841;222;23824;-74
2021/04/24 08:40:03;;;;;;;14.93;6.53;;;;;;;14.41;55.92;100911.29;660075;217;24772;-75
2021/04/24 08:42:31;;;;;;;12.90;7.00;;;;;;;14.35;55.21;100905.34;642982;218;32559;-74
2021/04/24 08:44:59;;;;;;;13.67;6.43;;;;;;;14.50;56.10;100905.17;648624;216;23658;-74
2021/04/24 08:47:27;;;;;;;7.90;6.40;;;;;;;14.59;56.24;100912.09;648043;221;25127;-75
2021/04/24 08:49:55;;;;;;;10.43;6.60;;;;;;;14.89;54.13;100902.11;641652;220;24121;-76
2021/04/24 08:52:23;;;;;;;12.18;7.03;;;;;;;15.04;56.34;100899.23;632941;221;32725;-74
2021/04/24 08:54:50;;;;;;;17.23;6.77;;;;;;;14.78;54.54;100900.61;641052;221;24035;-75
2021/04/24 08:57:18;;;;;;;8.50;5.30;;;;;;;14.65;52.53;100899.71;629951;226;24905;-73
2021/04/24 08:59:46;;;;;;;7.40;5.60;;;;;;;14.79;54.19;100904.38;638867;222;24807;-75
2021/04/24 09:02:15;;;;;;;8.90;6.50;;;;;;;14.87;54.31;100888.35;641361;222;24792;-74
2021/04/24 09:04:43;;;;;;;10.90;6.87;;;;;;;15.09;54.99;100891.74;642037;221;24793;-74
2021/04/24 09:07:10;;;;;;;14.23;7.10;;;;;;;15.22;53.49;100889.99;643843;221;24815;-76
2021/04/24 09:09:39;;;;;;;10.90;5.80;;;;;;;15.23;51.66;100877.22;645244;220;25001;-74
2021/04/24 09:12:07;;;;;;;16.10;7.40;;;;;;;15.66;51.76;100878.83;626952;225;33427;-72
2021/04/24 09:14:35;;;;;;;9.83;5.70;;;;;;;15.98;53.47;100877.53;640866;221;22694;-74
2021/04/24 09:17:03;;;;;;;13.38;8.15;;;;;;;15.98;50.35;100869.66;636511;220;33030;-75
2021/04/24 09:19:31;;;;;;;10.80;6.70;;;;;;;15.72;52.51;100868.98;642240;221;25864;-72
2021/04/24 09:22:09;;;;;;;13.27;6.93;;;;;;;15.73;51.21;100862.76;627594;225;27034;-74
2021/04/24 09:24:38;;;;;;;10.83;7.13;;;;;;;16.21;52.49;100861.95;645789;220;24813;-71
2021/04/24 09:27:06;;;;;;;14.03;7.10;;;;;;;16.25;53.35;100859.81;640882;221;24818;-71
2021/04/24 09:29:34;;;;;;;15.00;7.70;;;;;;;16.43;52.46;100861.74;641920;221;24790;-72
2021/04/24 09:32:12;;;;;;;11.60;6.60;;;;;;;16.93;52.41;100858.03;650050;218;27956;-75
2021/04/24 09:34:40;;;;;;;20.60;7.67;;;;;;;16.41;49.80;100840.09;651224;218;23796;-73
2021/04/24 09:37:15;;;;;;;15.67;6.73;;;;;;;16.63;51.79;100851.70;637216;221;23894;-73
2021/04/24 09:39:46;;;;;;;12.23;6.80;;;;;;;16.61;49.20;100837.92;647270;220;24844;-73
2021/04/24 09:42:32;;;;;;;10.33;6.17;;;;;;;17.02;51.30;100843.84;645050;221;27009;-72
2021/04/24 09:45:00;;;;;;;12.07;7.00;;;;;;;17.18;51.13;100842.47;642263;221;27019;-74
2021/04/24 09:47:41;;;;;;;12.47;6.90;;;;;;;17.18;50.44;100838.53;629071;225;24946;-75
2021/04/24 09:50:13;;;;;;;13.35;7.50;;;;;;;17.33;50.83;100830.72;633457;221;32789;-75
2021/04/24 09:52:40;;;;;;;15.25;7.78;;;;;;;17.32;48.05;100829.09;640551;221;32859;-75
2021/04/24 09:55:13;;;;;;;17.33;7.50;;;;;;;17.15;47.97;100824.89;640489;221;22692;-74
2021/04/24 09:57:41;;;;;;;10.80;6.93;;;;;;;17.25;50.24;100820.73;644832;222;32240;-75
2021/04/24 10:00:10;;;;;;;11.83;6.73;;;;;;;17.31;48.79;100822.66;650946;219;23766;-75
2021/04/24 10:02:38;;;;;;;12.20;6.43;;;;;;;17.39;49.56;100813.41;657130;218;24770;-74
2021/04/24 10:05:07;;;;;;;15.30;8.00;;;;;;;17.14;47.17;100800.41;649514;218;24765;-75
2021/04/24 10:07:37;;;;;;;12.87;7.17;;;;;;;17.40;49.83;100816.36;645726;221;23911;-75
2021/04/24 10:10:07;;;;;;;10.50;7.37;;;;;;;17.20;48.37;100812.88;643624;221;25109;-72
2021/04/24 10:12:34;;;;;;;12.53;7.43;;;;;;;17.38;48.51;100810.47;627086;225;23876;-72
2021/04/24 10:15:02;;;;;;;13.73;7.77;;;;;;;17.71;47.45;100798.73;640934;221;23837;-74
2021/04/24 10:17:30;;;;;;;17.43;6.60;;;;;;;17.93;49.23;100798.89;653265;218;31237;-75
2021/04/24 10:19:58;;;;;;;11.50;6.60;;;;;;;17.42;47.09;100799.41;652828;219;24830;-76
2021/04/24 10:22:26;;;;;;;9.23;6.50;;;;;;;17.51;47.80;100796.23;640813;221;23792;-75
2021/04/24 10:24:54;;;;;;;14.60;7.90;;;;;;;17.77;46.97;100789.33;654028;217;23785;-75
2021/04/24 10:27:22;;;;;;;15.43;7.30;;;;;;;17.79;47.32;100789.96;645622;221;23815;-75
2021/04/24 10:29:49;;;;;;;13.40;7.10;;;;;;;17.77;47.48;100791.45;644529;220;23839;-75
2021/04/24 10:32:18;;;;;;;14.20;7.10;;;;;;;18.09;45.01;100768.45;643152;221;33294;-75
2021/04/24 10:34:46;;;;;;;12.73;6.90;;;;;;;17.93;46.24;100771.25;641997;221;25895;-75
2021/04/24 10:37:13;;;;;;;13.10;7.00;;;;;;;17.97;45.95;100775.97;647806;217;24693;-75
2021/04/24 10:39:41;;;;;;;13.43;6.70;;;;;;;17.86;44.43;100764.55;636347;221;23860;-75
2021/04/24 10:42:12;;;;;;;12.57;6.60;;;;;;;17.86;44.56;100760.60;653894;217;24964;-75
2021/04/24 10:44:47;;;;;;;12.07;6.75;;;;;;;18.27;47.31;100760.19;645276;217;32614;-75
2021/04/24 10:47:15;;;;;;;14.23;6.83;;;;;;;18.04;46.42;100764.23;648947;217;22689;-75
2021/04/24 10:49:53;;;;;;;15.90;6.93;;;;;;;18.20;46.64;100754.84;648974;217;23779;-75
2021/04/24 10:52:23;;;;;;;10.40;6.73;;;;;;;18.41;46.01;100750.15;657515;217;23789;-74
2021/04/24 10:55:21;;;;;;;9.17;6.37;;;;;;;17.88;46.19;100748.61;659774;217;23796;-74
2021/04/24 10:57:49;;;;;;;11.70;7.67;;;;;;;17.91;43.62;100735.91;647804;217;23808;-75
2021/04/24 11:00:16;;;;;;;11.30;6.57;;;;;;;18.18;44.61;100738.42;657496;217;27968;-74
2021/04/24 11:02:45;;;;;;;12.33;6.70;;;;;;;18.29;44.17;100731.84;653111;217;23809;-74
2021/04/24 11:05:22;;;;;;;15.43;8.33;;;;;;;18.28;42.76;100725.77;652186;217;24768;-75
2021/04/24 11:08:07;;;;;;;12.43;6.58;;;;;;;18.47;45.38;100725.73;650231;217;32599;-75
2021/04/24 11:10:40;;;;;;;9.90;6.33;;;;;;;18.71;45.28;100729.88;653471;215;26911;-75
2021/04/24 11:13:08;;;;;;;14.30;7.20;;;;;;;18.58;44.67;100724.41;651118;217;23782;-74
2021/04/24 11:15:36;;;;;;;9.57;5.93;;;;;;;18.97;46.79;100720.94;656098;217;28004;-75
2021/04/24 11:18:04;;;;;;;11.43;7.07;;;;;;;19.17;43.30;100715.88;656070;217;23791;-71
2021/04/24 11:20:42;;;;;;;14.20;7.30;;;;;;;19.12;43.45;100710.83;652670;217;32786;-73
2021/04/24 11:23:31;;;;;;;13.97;7.47;;;;;;;18.67;43.68;100708.85;649301;217;22672;-74
2021/04/24 11:25:59;;;;;;;17.13;7.30;;;;;;;19.03;44.66;100703.56;659386;215;23792;-74
2021/04/24 11:28:27;;;;;;;13.40;7.10;;;;;;;18.92;42.38;100703.55;659433;217;24825;-74
2021/04/24 11:30:55;;;;;;;12.20;6.63;;;;;;;18.90;41.20;100696.34;651696;217;23798;-75